createdAt,value
2019-02-16T00:00:11.388Z,1.8
2019-02-16T00:01:20.931Z,1.1
2019-02-16T00:02:30.446Z,1.7
2019-02-16T00:03:39.980Z,1.5
2019-02-16T00:04:49.514Z,1.6
2019-02-16T00:05:59.053Z,1.7
2019-02-16T00:07:08.596Z,1.9
2019-02-16T00:08:18.219Z,1.4
2019-02-16T00:09:27.750Z,1.5
2019-02-16T00:10:37.254Z,1.9
2019-02-16T00:11:46.791Z,1.6
2019-02-16T00:12:56.324Z,1.6
2019-02-16T00:14:05.857Z,1.3
2019-02-16T00:15:15.404Z,1.7
2019-02-16T00:16:24.928Z,1.4
2019-02-16T00:17:34.440Z,1.2
2019-02-16T00:18:43.982Z,1.1
2019-02-16T00:19:53.605Z,1.6
2019-02-16T00:21:04.120Z,1.2
2019-02-16T00:22:13.653Z,1.3
2019-02-16T00:23:23.233Z,1.6
2019-02-16T00:24:32.753Z,1.5
2019-02-16T00:25:42.276Z,1.6
2019-02-16T00:26:51.801Z,1.3
2019-02-16T00:28:01.348Z,1.5
2019-02-16T00:29:10.898Z,1.3
2019-02-16T00:30:20.440Z,1.5
2019-02-16T00:31:29.955Z,1.8
2019-02-16T00:32:39.485Z,1.4
2019-02-16T00:33:49.008Z,1.4
2019-02-16T00:34:58.540Z,1.2
2019-02-16T00:36:08.044Z,1.1
2019-02-16T00:37:17.591Z,1.1
2019-02-16T00:38:28.197Z,1.1
2019-02-16T00:39:37.791Z,0.8
2019-02-16T00:40:47.395Z,1.1
2019-02-16T00:41:57.066Z,1
2019-02-16T00:43:06.724Z,1
2019-02-16T00:44:16.365Z,1
2019-02-16T00:45:25.974Z,0.9
2019-02-16T00:46:35.488Z,1.1
2019-02-16T00:47:45.070Z,1.2
2019-02-16T00:48:54.679Z,0.9
2019-02-16T00:50:04.217Z,1.4
2019-02-16T00:51:14.064Z,1.2
2019-02-16T00:52:23.280Z,1.1
2019-02-16T00:53:32.803Z,0.9
2019-02-16T00:54:42.339Z,0.9
2019-02-16T00:55:51.896Z,0.9
2019-02-16T00:57:01.413Z,0.9
2019-02-16T00:58:10.927Z,1
2019-02-16T00:59:20.479Z,0.8
2019-02-16T01:00:30.023Z,1.3
2019-02-16T01:01:39.609Z,1.1
2019-02-16T01:02:49.129Z,1.3
2019-02-16T01:03:58.665Z,1
2019-02-16T01:05:08.196Z,0.8
2019-02-16T01:06:17.762Z,0.7
2019-02-16T01:07:27.286Z,1.1
2019-02-16T01:08:36.825Z,1
2019-02-16T01:09:46.376Z,1.4
2019-02-16T01:10:55.894Z,1.5
2019-02-16T01:12:05.395Z,1.7
2019-02-16T01:13:14.926Z,2
2019-02-16T01:14:24.440Z,1.3
2019-02-16T01:15:33.956Z,1.5
2019-02-16T01:16:43.695Z,1.7
2019-02-16T01:17:53.217Z,1.5
2019-02-16T01:19:02.754Z,1.5
2019-02-16T01:20:12.275Z,1.6
2019-02-16T01:21:22.927Z,1.5
2019-02-16T01:22:32.241Z,2.1
2019-02-16T01:23:41.774Z,2.4
2019-02-16T01:24:51.299Z,1.5
2019-02-16T01:26:00.832Z,0.8
2019-02-16T01:27:10.338Z,1.1
2019-02-16T01:28:19.877Z,1.3
2019-02-16T01:29:29.402Z,1.1
2019-02-16T01:30:38.907Z,0.9
2019-02-16T01:31:48.450Z,1.1
2019-02-16T01:32:57.948Z,1.2
2019-02-16T01:34:07.504Z,1.8
2019-02-16T01:35:17.017Z,1.3
2019-02-16T01:36:26.530Z,1.5
2019-02-16T01:37:36.057Z,0.9
2019-02-16T01:38:45.595Z,1.2
2019-02-16T01:39:55.104Z,1.2
2019-02-16T01:41:04.672Z,1.7
2019-02-16T01:42:14.174Z,1.2
2019-02-16T01:43:23.696Z,1.5
2019-02-16T01:44:33.251Z,1
2019-02-16T01:45:42.834Z,0.7
2019-02-16T01:46:52.311Z,0.8
2019-02-16T01:48:01.845Z,1.1
2019-02-16T01:49:11.399Z,1
2019-02-16T01:50:20.903Z,1
2019-02-16T01:51:32.073Z,0.8
2019-02-16T01:52:40.934Z,0.8
2019-02-16T01:53:50.472Z,1.2
2019-02-16T01:54:59.990Z,0.7
2019-02-16T01:56:09.496Z,0.9
2019-02-16T01:57:19.003Z,0.8
2019-02-16T01:58:28.543Z,1.5
2019-02-16T01:59:38.066Z,1.1
2019-02-16T02:00:47.604Z,1.1
2019-02-16T02:01:57.164Z,1
2019-02-16T02:03:06.664Z,0.8
2019-02-16T02:04:16.205Z,1.2
2019-02-16T02:05:26.082Z,0.7
2019-02-16T02:06:35.601Z,0.8
2019-02-16T02:07:45.111Z,0.6
2019-02-16T02:08:54.661Z,1.1
2019-02-16T02:10:04.178Z,0.8
2019-02-16T02:11:13.707Z,0.7
2019-02-16T02:12:23.221Z,0.8
2019-02-16T02:13:32.731Z,0.7
2019-02-16T02:14:42.246Z,1
2019-02-16T02:15:51.766Z,0.8
2019-02-16T02:17:01.277Z,1
2019-02-16T02:18:11.773Z,0.7
2019-02-16T02:19:21.297Z,0.8
2019-02-16T02:20:30.800Z,0.6
2019-02-16T02:21:41.288Z,1.2
2019-02-16T02:22:50.819Z,1
2019-02-16T02:24:00.351Z,1.1
2019-02-16T02:25:09.881Z,1
2019-02-16T02:26:19.404Z,1
2019-02-16T02:27:28.913Z,0.8
2019-02-16T02:28:38.416Z,1.1
2019-02-16T02:29:47.930Z,1
2019-02-16T02:30:57.436Z,1.2
2019-02-16T02:32:06.963Z,1.1
2019-02-16T02:33:16.459Z,1
2019-02-16T02:34:26.009Z,1
2019-02-16T02:35:35.529Z,1.1
2019-02-16T02:36:45.050Z,0.7
2019-02-16T02:37:54.571Z,1.2
2019-02-16T02:39:04.144Z,0.8
2019-02-16T02:40:13.690Z,1.2
2019-02-16T02:41:23.203Z,0.8
2019-02-16T02:42:32.698Z,1
2019-02-16T02:43:42.215Z,1.4
2019-02-16T02:44:51.761Z,1.1
2019-02-16T02:46:01.278Z,0.6
2019-02-16T02:47:10.814Z,0.9
2019-02-16T02:48:20.315Z,1
2019-02-16T02:49:29.844Z,0.9
2019-02-16T02:50:39.428Z,0.7
2019-02-16T02:51:51.853Z,0.8
2019-02-16T02:52:59.421Z,0.9
2019-02-16T02:54:09.009Z,1.1
2019-02-16T02:55:18.538Z,0.9
2019-02-16T02:56:29.046Z,1
2019-02-16T02:57:38.578Z,1.1
2019-02-16T02:58:48.225Z,1.1
2019-02-16T02:59:57.760Z,1.2
2019-02-16T03:01:07.293Z,0.9
2019-02-16T03:02:16.814Z,1.2
2019-02-16T03:03:26.370Z,0.6
2019-02-16T03:04:35.916Z,1.1
2019-02-16T03:05:45.473Z,1.2
2019-02-16T03:06:54.979Z,1.3
2019-02-16T03:08:04.502Z,0.8
2019-02-16T03:09:14.015Z,1.1
2019-02-16T03:10:23.571Z,1.4
2019-02-16T03:11:33.101Z,1
2019-02-16T03:12:42.603Z,1.1
2019-02-16T03:13:52.123Z,0.8
2019-02-16T03:15:01.630Z,0.9
2019-02-16T03:16:11.158Z,1
2019-02-16T03:17:20.669Z,0.9
2019-02-16T03:18:30.189Z,0.9
2019-02-16T03:19:39.704Z,1
2019-02-16T03:20:49.217Z,0.7
2019-02-16T03:22:02.603Z,1.1
2019-02-16T03:23:09.257Z,1.2
2019-02-16T03:24:18.815Z,1
2019-02-16T03:25:28.327Z,1
2019-02-16T03:26:37.856Z,0.9
2019-02-16T03:27:47.377Z,1
2019-02-16T03:28:56.892Z,0.9
2019-02-16T03:30:06.397Z,0.8
2019-02-16T03:31:15.942Z,1.7
2019-02-16T03:32:25.454Z,1.4
2019-02-16T03:33:35.959Z,1.1
2019-02-16T03:34:45.482Z,1
2019-02-16T03:35:54.997Z,1.3
2019-02-16T03:37:04.540Z,0.9
2019-02-16T03:38:14.075Z,1
2019-02-16T03:39:23.608Z,1.3
2019-02-16T03:40:33.132Z,1
2019-02-16T03:41:42.646Z,1.1
2019-02-16T03:42:52.150Z,1.3
2019-02-16T03:44:01.653Z,1.3
2019-02-16T03:45:11.159Z,1.1
2019-02-16T03:46:20.688Z,1.1
2019-02-16T03:47:30.245Z,0.8
2019-02-16T03:48:39.759Z,1.2
2019-02-16T03:49:49.343Z,0.7
2019-02-16T03:50:58.810Z,1
2019-02-16T03:52:13.614Z,0.9
2019-02-16T03:53:18.868Z,1.1
2019-02-16T03:54:28.370Z,0.8
2019-02-16T03:55:37.867Z,0.9
2019-02-16T03:56:47.384Z,1
2019-02-16T03:57:56.918Z,0.8
2019-02-16T03:59:06.428Z,0.9
2019-02-16T04:00:15.926Z,1.2
2019-02-16T04:01:25.473Z,0.9
2019-02-16T04:02:35.004Z,1.1
2019-02-16T04:03:44.513Z,1.2
2019-02-16T04:04:54.024Z,1
2019-02-16T04:06:03.556Z,0.8
2019-02-16T04:07:13.106Z,0.9
2019-02-16T04:08:22.628Z,0.9
2019-02-16T04:09:32.156Z,1.4
2019-02-16T04:10:42.664Z,0.9
2019-02-16T04:11:52.202Z,1.2
2019-02-16T04:13:01.720Z,1.1
2019-02-16T04:14:11.263Z,0.5
2019-02-16T04:15:20.779Z,1
2019-02-16T04:16:30.326Z,1.3
2019-02-16T04:17:39.869Z,1
2019-02-16T04:18:49.395Z,0.6
2019-02-16T04:19:58.908Z,1
2019-02-16T04:21:08.424Z,1.4
2019-02-16T04:22:24.432Z,1
2019-02-16T04:23:28.493Z,1
2019-02-16T04:24:38.020Z,1.4
2019-02-16T04:25:47.571Z,0.9
2019-02-16T04:26:57.094Z,0.8
2019-02-16T04:28:06.611Z,0.8
2019-02-16T04:29:16.202Z,1.2
2019-02-16T04:30:25.662Z,1.2
2019-02-16T04:31:35.213Z,1
2019-02-16T04:32:44.714Z,0.9
2019-02-16T04:33:54.245Z,1
2019-02-16T04:35:03.765Z,1.3
2019-02-16T04:36:13.326Z,1.1
2019-02-16T04:37:22.846Z,0.9
2019-02-16T04:38:32.351Z,0.9
2019-02-16T04:39:41.922Z,0.9
2019-02-16T04:40:51.484Z,0.9
2019-02-16T04:42:01.026Z,1.2
2019-02-16T04:43:10.542Z,0.8
2019-02-16T04:44:20.047Z,0.8
2019-02-16T04:45:29.561Z,0.7
2019-02-16T04:46:39.097Z,0.8
2019-02-16T04:47:48.609Z,0.6
2019-02-16T04:48:58.142Z,1
2019-02-16T04:50:07.698Z,0.6
2019-02-16T04:51:17.252Z,1.2
2019-02-16T04:52:34.228Z,0.8
2019-02-16T04:53:37.245Z,0.5
2019-02-16T04:54:46.747Z,1
2019-02-16T04:55:56.271Z,0.7
2019-02-16T04:57:05.833Z,0.9
2019-02-16T04:58:15.371Z,0.8
2019-02-16T04:59:24.898Z,1
2019-02-16T05:00:34.407Z,1
2019-02-16T05:01:43.947Z,1.1
2019-02-16T05:02:53.465Z,1.1
2019-02-16T05:04:02.976Z,1.7
2019-02-16T05:05:12.501Z,1.4
2019-02-16T05:06:22.030Z,1.5
2019-02-16T05:07:31.556Z,1.6
2019-02-16T05:08:41.082Z,1.8
2019-02-16T05:09:50.585Z,1.9
2019-02-16T05:11:00.109Z,1.7
2019-02-16T05:12:09.636Z,1.4
2019-02-16T05:13:19.162Z,1.3
2019-02-16T05:14:28.663Z,1.8
2019-02-16T05:15:38.233Z,1.3
2019-02-16T05:16:47.848Z,1
2019-02-16T05:17:57.359Z,1
2019-02-16T05:19:06.879Z,1.1
2019-02-16T05:20:16.379Z,0.8
2019-02-16T05:21:25.906Z,1
2019-02-16T05:22:44.081Z,0.7
2019-02-16T05:23:45.970Z,1
2019-02-16T05:24:55.509Z,0.5
2019-02-16T05:26:05.034Z,1.2
2019-02-16T05:27:14.571Z,0.9
2019-02-16T05:28:24.091Z,0.7
2019-02-16T05:29:33.650Z,0.9
2019-02-16T05:30:43.205Z,0.5
2019-02-16T05:31:52.723Z,0.6
2019-02-16T05:33:02.228Z,1.2
2019-02-16T05:34:11.790Z,0.9
2019-02-16T05:35:21.317Z,0.4
2019-02-16T05:36:30.825Z,0.6
2019-02-16T05:37:40.349Z,1
2019-02-16T05:38:49.857Z,1.1
2019-02-16T05:39:59.366Z,1
2019-02-16T05:41:08.897Z,0.7
2019-02-16T05:42:18.419Z,0.9
2019-02-16T05:43:27.931Z,0.8
2019-02-16T05:44:37.453Z,0.7
2019-02-16T05:45:46.974Z,0.9
2019-02-16T05:46:56.499Z,0.6
2019-02-16T05:48:06.047Z,0.6
2019-02-16T05:49:15.566Z,1
2019-02-16T05:50:25.077Z,0.7
2019-02-16T05:51:34.597Z,0.8
2019-02-16T05:52:53.693Z,0.8
2019-02-16T05:53:54.606Z,0.6
2019-02-16T05:55:04.115Z,1
2019-02-16T05:56:13.640Z,0.9
2019-02-16T05:57:23.179Z,0.7
2019-02-16T05:58:32.711Z,0.7
2019-02-16T05:59:42.239Z,0.9
2019-02-16T06:00:51.778Z,0.6
2019-02-16T06:02:01.314Z,1
2019-02-16T06:03:10.816Z,0.6
2019-02-16T06:04:20.354Z,0.8
2019-02-16T06:05:29.855Z,1
2019-02-16T06:06:39.461Z,0.7
2019-02-16T06:07:48.973Z,0.6
2019-02-16T06:08:58.491Z,1
2019-02-16T06:10:07.990Z,0.9
2019-02-16T06:11:17.514Z,0.7
2019-02-16T06:12:27.055Z,0.7
2019-02-16T06:13:36.600Z,0.4
2019-02-16T06:14:46.115Z,0.7
2019-02-16T06:15:55.641Z,0.8
2019-02-16T06:17:05.189Z,1.1
2019-02-16T06:18:14.704Z,0.8
2019-02-16T06:19:24.231Z,0.6
2019-02-16T06:20:33.781Z,0.7
2019-02-16T06:21:43.269Z,0.8
2019-02-16T06:22:52.813Z,0.7
2019-02-16T06:24:02.363Z,0.6
2019-02-16T06:25:11.888Z,0.6
2019-02-16T06:26:21.416Z,0.7
2019-02-16T06:27:30.942Z,1
2019-02-16T06:28:40.462Z,0.8
2019-02-16T06:29:49.984Z,0.9
2019-02-16T06:30:59.503Z,1
2019-02-16T06:32:09.078Z,0.8
2019-02-16T06:33:18.607Z,0.9
2019-02-16T06:34:28.109Z,0.7
2019-02-16T06:35:37.680Z,0.6
2019-02-16T06:36:47.198Z,0.6
2019-02-16T06:37:56.753Z,0.7
2019-02-16T06:39:06.257Z,0.7
2019-02-16T06:40:15.772Z,1
2019-02-16T06:41:25.295Z,0.7
2019-02-16T06:42:34.835Z,0.7
2019-02-16T06:43:44.362Z,1
2019-02-16T06:44:53.891Z,0.4
2019-02-16T06:46:03.414Z,1.2
2019-02-16T06:47:12.938Z,0.7
2019-02-16T06:48:22.476Z,0.6
2019-02-16T06:49:31.996Z,0.9
2019-02-16T06:50:41.513Z,0.6
2019-02-16T06:51:51.018Z,0.9
2019-02-16T06:53:00.534Z,0.7
2019-02-16T06:54:10.038Z,0.8
2019-02-16T06:55:19.551Z,0.7
2019-02-16T06:56:29.072Z,0.9
2019-02-16T06:57:38.637Z,0.7
2019-02-16T06:58:48.158Z,0.6
2019-02-16T06:59:57.778Z,0.5
2019-02-16T07:01:07.287Z,0.7
2019-02-16T07:02:16.800Z,0.6
2019-02-16T07:03:26.334Z,0.8
2019-02-16T07:04:35.843Z,0.8
2019-02-16T07:05:45.364Z,1
2019-02-16T07:06:54.915Z,1.1
2019-02-16T07:08:04.430Z,1
2019-02-16T07:09:13.946Z,1.1
2019-02-16T07:10:23.494Z,0.9
2019-02-16T07:11:33.018Z,1.3
2019-02-16T07:12:42.562Z,0.7
2019-02-16T07:13:52.099Z,0.6
2019-02-16T07:15:01.622Z,0.9
2019-02-16T07:16:11.170Z,0.8
2019-02-16T07:17:20.732Z,0.5
2019-02-16T07:18:30.293Z,0.7
2019-02-16T07:19:39.800Z,1.3
2019-02-16T07:20:49.329Z,1.4
2019-02-16T07:21:58.835Z,0.9
2019-02-16T07:23:08.374Z,1.3
2019-02-16T07:24:17.875Z,0.8
2019-02-16T07:25:27.403Z,1.1
2019-02-16T07:26:36.942Z,1.2
2019-02-16T07:27:46.551Z,1
2019-02-16T07:28:56.096Z,0.7
2019-02-16T07:30:05.607Z,0.7
2019-02-16T07:31:15.874Z,0.8
2019-02-16T07:32:24.636Z,0.7
2019-02-16T07:33:34.172Z,0.6
2019-02-16T07:34:43.687Z,0.9
2019-02-16T07:35:53.189Z,0.8
2019-02-16T07:37:02.706Z,0.4
2019-02-16T07:38:13.240Z,0.7
2019-02-16T07:39:22.773Z,0.5
2019-02-16T07:40:32.280Z,0.7
2019-02-16T07:41:41.803Z,0.6
2019-02-16T07:42:51.359Z,0.7
2019-02-16T07:44:00.890Z,0.5
2019-02-16T07:45:10.394Z,0.5
2019-02-16T07:46:19.899Z,0.8
2019-02-16T07:47:29.429Z,0.8
2019-02-16T07:48:38.961Z,1
2019-02-16T07:49:48.488Z,0.8
2019-02-16T07:50:58.010Z,1.1
2019-02-16T07:52:07.532Z,0.7
2019-02-16T07:53:17.050Z,0.7
2019-02-16T07:54:26.559Z,0.6
2019-02-16T07:55:36.077Z,0.4
2019-02-16T07:56:45.635Z,0.7
2019-02-16T07:57:55.154Z,0.6
2019-02-16T07:59:04.695Z,0.4
2019-02-16T08:00:14.225Z,0.9
2019-02-16T08:01:23.717Z,0.3
2019-02-16T08:02:33.267Z,0.5
2019-02-16T08:03:42.818Z,0.8
2019-02-16T08:04:52.324Z,0.4
2019-02-16T08:06:01.921Z,0.9
2019-02-16T08:07:11.392Z,0.6
2019-02-16T08:08:20.931Z,0.5
2019-02-16T08:09:30.505Z,0.6
2019-02-16T08:10:40.048Z,0.5
2019-02-16T08:11:49.553Z,0.3
2019-02-16T08:12:59.102Z,0.5
2019-02-16T08:14:08.615Z,0.4
2019-02-16T08:15:18.135Z,0.3
2019-02-16T08:16:27.643Z,0.6
2019-02-16T08:17:37.162Z,0.6
2019-02-16T08:18:46.687Z,0.3
2019-02-16T08:19:56.187Z,0.5
2019-02-16T08:21:05.695Z,0.6
2019-02-16T08:22:15.257Z,0.3
2019-02-16T08:23:24.807Z,0.7
2019-02-16T08:24:34.340Z,0.6
2019-02-16T08:25:43.868Z,0.3
2019-02-16T08:26:53.392Z,0.2
2019-02-16T08:28:02.912Z,0.4
2019-02-16T08:29:12.458Z,0.4
2019-02-16T08:30:21.985Z,0.3
2019-02-16T08:31:31.520Z,0.5
2019-02-16T08:32:41.038Z,0.4
2019-02-16T08:33:50.563Z,0.4
2019-02-16T08:35:00.073Z,0.4
2019-02-16T08:36:09.589Z,0.6
2019-02-16T08:37:19.137Z,0.4
2019-02-16T08:38:28.985Z,0.6
2019-02-16T08:39:38.375Z,0.5
2019-02-16T08:40:47.887Z,0.3
2019-02-16T08:41:57.405Z,0.6
2019-02-16T08:43:06.904Z,0.4
2019-02-16T08:44:16.449Z,0.5
2019-02-16T08:45:26.006Z,0.4
2019-02-16T08:46:35.520Z,0.4
2019-02-16T08:47:45.038Z,0.3
2019-02-16T08:48:54.585Z,0.5
2019-02-16T08:50:04.105Z,0.5
2019-02-16T08:51:13.613Z,0.2
2019-02-16T08:52:23.184Z,0.5
2019-02-16T08:53:32.695Z,0.4
2019-02-16T08:54:42.236Z,0.3
2019-02-16T08:55:51.743Z,0.3
2019-02-16T08:57:01.272Z,0.3
2019-02-16T08:58:10.806Z,0.5
2019-02-16T08:59:20.370Z,0.4
2019-02-16T09:00:29.911Z,0.4
2019-02-16T09:01:39.568Z,0.6
2019-02-16T09:02:49.078Z,0.5
2019-02-16T09:03:58.592Z,0.6
2019-02-16T09:05:08.125Z,0.6
2019-02-16T09:06:17.641Z,0.6
2019-02-16T09:07:27.149Z,0.4
2019-02-16T09:08:36.667Z,0.5
2019-02-16T09:09:46.274Z,0.5
2019-02-16T09:10:55.812Z,0.4
2019-02-16T09:12:05.956Z,0.2
2019-02-16T09:13:14.914Z,0.5
2019-02-16T09:14:24.440Z,0.4
2019-02-16T09:15:33.973Z,0.2
2019-02-16T09:16:43.691Z,0.5
2019-02-16T09:17:53.214Z,0.4
2019-02-16T09:19:02.761Z,0.5
2019-02-16T09:20:12.324Z,0.3
2019-02-16T09:21:21.869Z,0.5
2019-02-16T09:22:31.386Z,1.1
2019-02-16T09:23:40.933Z,0.5
2019-02-16T09:24:50.498Z,0.5
2019-02-16T09:26:00.026Z,0.6
2019-02-16T09:27:10.654Z,0.5
2019-02-16T09:28:20.065Z,0.5
2019-02-16T09:29:29.606Z,0.6
2019-02-16T09:30:39.140Z,0.5
2019-02-16T09:31:48.738Z,0.6
2019-02-16T09:32:59.273Z,0.4
2019-02-16T09:34:08.812Z,0.3
2019-02-16T09:35:18.326Z,0.6
2019-02-16T09:36:27.908Z,0.4
2019-02-16T09:37:37.415Z,0.6
2019-02-16T09:38:46.934Z,0.6
2019-02-16T09:39:56.478Z,0.7
2019-02-16T09:41:06.006Z,0.6
2019-02-16T09:42:15.521Z,0.6
2019-02-16T09:43:25.051Z,0.4
2019-02-16T09:44:34.585Z,0.6
2019-02-16T09:45:44.114Z,0.8
2019-02-16T09:46:53.627Z,0.7
2019-02-16T09:48:03.130Z,0.6
2019-02-16T09:49:12.676Z,0.7
2019-02-16T09:50:22.225Z,0.5
2019-02-16T09:51:31.738Z,0.6
2019-02-16T09:52:41.253Z,0.6
2019-02-16T09:53:50.787Z,0.5
2019-02-16T09:55:00.336Z,0.7
2019-02-16T09:56:09.840Z,0.4
2019-02-16T09:57:19.356Z,0.7
2019-02-16T09:58:28.865Z,0.7
2019-02-16T09:59:38.424Z,0.6
2019-02-16T10:00:47.935Z,0.3
2019-02-16T10:01:57.439Z,0.4
2019-02-16T10:03:07.001Z,0.4
2019-02-16T10:04:16.603Z,0.7
2019-02-16T10:05:26.158Z,0.6
2019-02-16T10:06:35.677Z,0.8
2019-02-16T10:07:45.205Z,0.4
2019-02-16T10:08:54.737Z,0.5
2019-02-16T10:10:04.278Z,0.5
2019-02-16T10:11:13.810Z,0.5
2019-02-16T10:12:23.379Z,0.6
2019-02-16T10:13:32.903Z,0.3
2019-02-16T10:14:42.477Z,0.3
2019-02-16T10:15:52.003Z,0.7
2019-02-16T10:17:01.514Z,0.4
2019-02-16T10:18:11.407Z,0.4
2019-02-16T10:19:20.957Z,0.8
2019-02-16T10:20:30.513Z,0.5
2019-02-16T10:21:40.102Z,0.3
2019-02-16T10:22:49.632Z,0.4
2019-02-16T10:23:59.154Z,0.6
2019-02-16T10:25:08.722Z,0.4
2019-02-16T10:26:18.239Z,0.4
2019-02-16T10:27:27.775Z,0.6
2019-02-16T10:28:37.321Z,0.6
2019-02-16T10:29:46.863Z,0.2
2019-02-16T10:30:56.378Z,0.7
2019-02-16T10:32:05.915Z,0.2
2019-02-16T10:33:15.420Z,0.5
2019-02-16T10:34:24.934Z,0.4
2019-02-16T10:35:36.619Z,0.5
2019-02-16T10:36:44.980Z,0.4
2019-02-16T10:37:54.525Z,0.4
2019-02-16T10:39:04.034Z,0.4
2019-02-16T10:40:13.567Z,0.5
2019-02-16T10:41:23.087Z,0.4
2019-02-16T10:42:33.556Z,0.4
2019-02-16T10:43:43.149Z,0.4
2019-02-16T10:44:52.668Z,0.3
2019-02-16T10:46:02.183Z,0.3
2019-02-16T10:47:11.691Z,0.6
2019-02-16T10:48:21.235Z,0.5
2019-02-16T10:49:30.746Z,0.4
2019-02-16T10:50:40.277Z,0.3
2019-02-16T10:51:49.778Z,0.4
2019-02-16T10:52:59.292Z,0.3
2019-02-16T10:54:08.807Z,0.5
2019-02-16T10:55:18.368Z,0.4
2019-02-16T10:56:27.917Z,0.6
2019-02-16T10:57:37.430Z,0.4
2019-02-16T10:58:46.942Z,0.4
2019-02-16T10:59:56.483Z,0.4
2019-02-16T11:01:06.019Z,0.4
2019-02-16T11:02:15.527Z,0.3
2019-02-16T11:03:25.544Z,0.4
2019-02-16T11:04:38.098Z,0.4
2019-02-16T11:05:45.048Z,0.4
2019-02-16T11:06:54.553Z,0.3
2019-02-16T11:08:04.056Z,0.2
2019-02-16T11:09:13.555Z,0.2
2019-02-16T11:10:23.123Z,0.3
2019-02-16T11:11:32.643Z,0.2
2019-02-16T11:12:42.227Z,0.2
2019-02-16T11:13:51.691Z,0.2
2019-02-16T11:15:01.215Z,0.2
2019-02-16T11:16:10.755Z,0.2
2019-02-16T11:17:20.249Z,0.2
2019-02-16T11:18:29.759Z,0.3
2019-02-16T11:19:39.287Z,0.3
2019-02-16T11:20:48.830Z,0.5
2019-02-16T11:21:58.348Z,0.2
2019-02-16T11:23:07.918Z,0.2
2019-02-16T11:24:17.417Z,0.2
2019-02-16T11:25:27.014Z,0.3
2019-02-16T11:26:36.538Z,0.3
2019-02-16T11:27:46.044Z,0.3
2019-02-16T11:28:55.581Z,0.4
2019-02-16T11:30:05.096Z,0.3
2019-02-16T11:31:14.634Z,0.2
2019-02-16T11:32:24.160Z,0.3
2019-02-16T11:33:33.669Z,0.3
2019-02-16T11:34:43.190Z,0.1
2019-02-16T11:35:52.724Z,0.1
2019-02-16T11:37:02.245Z,0.3
2019-02-16T11:38:11.747Z,0.4
2019-02-16T11:39:21.265Z,0.2
2019-02-16T11:40:30.770Z,0.3
2019-02-16T11:41:40.272Z,0.3
2019-02-16T11:42:49.768Z,0.4
2019-02-16T11:43:59.287Z,0.2
2019-02-16T11:45:08.813Z,0.3
2019-02-16T11:46:18.348Z,0.2
2019-02-16T11:47:27.874Z,0.2
2019-02-16T11:48:37.359Z,0.2
2019-02-16T11:49:46.860Z,0.2
2019-02-16T11:50:56.415Z,0.1
2019-02-16T11:52:05.929Z,0.3
2019-02-16T11:53:15.443Z,0.1
2019-02-16T11:54:24.949Z,0.2
2019-02-16T11:55:34.460Z,0.3
2019-02-16T11:56:43.989Z,0.1
2019-02-16T11:57:53.520Z,0.2
2019-02-16T11:59:03.043Z,0.1
2019-02-16T12:00:12.554Z,0.4
2019-02-16T12:01:22.091Z,0.3
2019-02-16T12:02:39.390Z,0.1
2019-02-16T12:03:42.138Z,0.1
2019-02-16T12:04:51.655Z,0.3
2019-02-16T12:06:01.188Z,0.2
2019-02-16T12:07:10.708Z,0.2
2019-02-16T12:08:20.240Z,0.2
2019-02-16T12:09:29.762Z,0.1
2019-02-16T12:10:39.293Z,0.1
2019-02-16T12:11:48.842Z,0.3
2019-02-16T12:12:58.386Z,0.2
2019-02-16T12:14:07.927Z,0.2
2019-02-16T12:15:17.427Z,0.1
2019-02-16T12:16:26.982Z,0.3
2019-02-16T12:17:36.507Z,0.4
2019-02-16T12:18:46.044Z,0.3
2019-02-16T12:19:55.651Z,0.2
2019-02-16T12:21:05.210Z,0.2
2019-02-16T12:22:14.736Z,0.2
2019-02-16T12:23:24.298Z,0.2
2019-02-16T12:24:33.812Z,0.2
2019-02-16T12:25:43.340Z,0.1
2019-02-16T12:26:52.889Z,0.3
2019-02-16T12:28:02.434Z,0.4
2019-02-16T12:29:11.947Z,0.4
2019-02-16T12:30:21.474Z,0.1
2019-02-16T12:31:31.017Z,0.2
2019-02-16T12:32:40.541Z,0.1
2019-02-16T12:33:50.037Z,0.2
2019-02-16T12:34:59.565Z,0.3
2019-02-16T12:36:09.084Z,0.1
2019-02-16T12:37:18.600Z,0.2
2019-02-16T12:38:28.129Z,0.4
2019-02-16T12:39:37.650Z,0.2
2019-02-16T12:40:47.169Z,0.1
2019-02-16T12:41:56.733Z,0.2
2019-02-16T12:43:06.249Z,0.1
2019-02-16T12:44:15.788Z,0.2
2019-02-16T12:45:25.321Z,0.2
2019-02-16T12:46:34.986Z,0.3
2019-02-16T12:47:44.498Z,0.1
2019-02-16T12:48:54.040Z,0.2
2019-02-16T12:50:03.581Z,0.3
2019-02-16T12:51:13.141Z,0.2
2019-02-16T12:52:22.684Z,0.1
2019-02-16T12:53:32.233Z,0.2
2019-02-16T12:54:41.764Z,0.2
2019-02-16T12:55:51.303Z,0.2
2019-02-16T12:57:00.839Z,0.2
2019-02-16T12:58:10.346Z,0.1
2019-02-16T12:59:19.880Z,0.1
2019-02-16T13:00:29.421Z,0.1
2019-02-16T13:01:38.968Z,0.2
2019-02-16T13:02:48.494Z,0.1
2019-02-16T13:03:58.013Z,0.2
2019-02-16T13:05:07.528Z,0.1
2019-02-16T13:06:17.030Z,0.2
2019-02-16T13:07:26.554Z,0.5
2019-02-16T13:08:36.081Z,0.3
2019-02-16T13:09:45.567Z,0.1
2019-02-16T13:10:55.094Z,0.2
2019-02-16T13:12:04.651Z,0.3
2019-02-16T13:13:14.176Z,0.2
2019-02-16T13:14:23.680Z,0.2
2019-02-16T13:15:33.206Z,0.1
2019-02-16T13:16:42.742Z,0.3
2019-02-16T13:17:52.247Z,0.1
2019-02-16T13:19:01.778Z,0.1
2019-02-16T13:20:11.306Z,0.4
2019-02-16T13:21:20.852Z,0.2
2019-02-16T13:22:30.494Z,0.2
2019-02-16T13:23:40.048Z,0.2
2019-02-16T13:24:49.570Z,0.2
2019-02-16T13:25:59.117Z,0.4
2019-02-16T13:27:08.684Z,0.2
2019-02-16T13:28:18.728Z,0.1
2019-02-16T13:29:28.329Z,0.2
2019-02-16T13:30:37.845Z,0.4
2019-02-16T13:31:47.381Z,0.2
2019-02-16T13:32:56.889Z,0.3
2019-02-16T13:34:06.427Z,0.3
2019-02-16T13:35:15.964Z,0.2
2019-02-16T13:36:25.477Z,0.1
2019-02-16T13:37:35.067Z,0.1
2019-02-16T13:38:44.606Z,0.2
2019-02-16T13:39:54.133Z,0.3
2019-02-16T13:41:03.642Z,0.4
2019-02-16T13:42:13.200Z,0.4
2019-02-16T13:43:22.725Z,0.4
2019-02-16T13:44:32.220Z,0.2
2019-02-16T13:45:41.763Z,0.2
2019-02-16T13:46:51.272Z,0.1
2019-02-16T13:48:00.806Z,0.2
2019-02-16T13:49:10.303Z,0.2
2019-02-16T13:50:20.302Z,0.2
2019-02-16T13:51:29.319Z,0.4
2019-02-16T13:52:38.874Z,0.3
2019-02-16T13:53:48.404Z,0.3
2019-02-16T13:54:57.909Z,0.4
2019-02-16T13:56:07.432Z,0.3
2019-02-16T13:57:16.987Z,0.2
2019-02-16T13:58:26.514Z,0.1
2019-02-16T13:59:36.025Z,0.7
2019-02-16T14:00:45.539Z,0.2
2019-02-16T14:01:55.048Z,0.2
2019-02-16T14:03:04.606Z,0.2
2019-02-16T14:04:14.130Z,0.3
2019-02-16T14:05:23.674Z,0.1
2019-02-16T14:06:33.198Z,0.6
2019-02-16T14:07:42.729Z,0.1
2019-02-16T14:08:52.228Z,0.2
2019-02-16T14:10:01.761Z,0.5
2019-02-16T14:11:11.258Z,0.3
2019-02-16T14:12:20.794Z,0.4
2019-02-16T14:13:30.337Z,0.3
2019-02-16T14:14:39.845Z,0.3
2019-02-16T14:15:49.364Z,0.5
2019-02-16T14:16:58.878Z,0.2
2019-02-16T14:18:08.698Z,0.1
2019-02-16T14:19:18.207Z,0.2
2019-02-16T14:20:27.709Z,0.1
2019-02-16T14:21:37.211Z,0.2
2019-02-16T14:22:46.755Z,0.3
2019-02-16T14:23:56.257Z,0.2
2019-02-16T14:25:05.756Z,0.2
2019-02-16T14:26:15.281Z,0.5
2019-02-16T14:27:24.838Z,0.2
2019-02-16T14:28:34.338Z,0.2
2019-02-16T14:29:43.844Z,0.1
2019-02-16T14:30:53.343Z,0.2
2019-02-16T14:32:03.277Z,0.3
2019-02-16T14:33:13.399Z,0.1
2019-02-16T14:34:22.895Z,0.2
2019-02-16T14:35:32.406Z,0.1
2019-02-16T14:36:41.922Z,0.2
2019-02-16T14:37:51.488Z,0.1
2019-02-16T14:39:01.015Z,0.2
2019-02-16T14:40:10.536Z,0.2
2019-02-16T14:41:20.047Z,0.2
2019-02-16T14:42:29.633Z,0.2
2019-02-16T14:43:39.130Z,0.4
2019-02-16T14:44:49.390Z,0.2
2019-02-16T14:45:58.181Z,0.3
2019-02-16T14:47:07.705Z,0.3
2019-02-16T14:48:17.328Z,0.2
2019-02-16T14:49:27.718Z,0.2
2019-02-16T14:50:37.278Z,0.2
2019-02-16T14:51:46.776Z,0.2
2019-02-16T14:52:56.317Z,0.1
2019-02-16T14:54:05.835Z,0.2
2019-02-16T14:55:15.371Z,0.3
2019-02-16T14:56:24.888Z,0.3
2019-02-16T14:57:34.407Z,0.4
2019-02-16T14:58:43.939Z,0.1
2019-02-16T14:59:53.445Z,0.2
2019-02-16T15:01:02.966Z,0.4
2019-02-16T15:02:12.501Z,0.5
2019-02-16T15:03:22.093Z,0.4
2019-02-16T15:04:31.624Z,0.2
2019-02-16T15:05:41.141Z,0.2
2019-02-16T15:06:50.645Z,0.3
2019-02-16T15:08:00.214Z,0.4
2019-02-16T15:09:09.727Z,0.2
2019-02-16T15:10:19.250Z,0.2
2019-02-16T15:11:28.768Z,0.2
2019-02-16T15:12:38.316Z,0.5
2019-02-16T15:13:47.851Z,0.4
2019-02-16T15:14:57.398Z,0.3
2019-02-16T15:16:06.972Z,0.3
2019-02-16T15:17:16.507Z,0.1
2019-02-16T15:18:26.075Z,0.2
2019-02-16T15:19:35.648Z,0.2
2019-02-16T15:20:45.165Z,0.3
2019-02-16T15:21:54.680Z,0.2
2019-02-16T15:23:04.250Z,0.3
2019-02-16T15:24:13.757Z,0.3
2019-02-16T15:25:23.276Z,0.3
2019-02-16T15:26:32.787Z,0.3
2019-02-16T15:27:42.798Z,0.2
2019-02-16T15:28:52.177Z,0.4
2019-02-16T15:30:01.726Z,0.3
2019-02-16T15:31:11.319Z,0.4
2019-02-16T15:32:20.846Z,0.5
2019-02-16T15:33:30.414Z,0.4
2019-02-16T15:34:39.935Z,0.4
2019-02-16T15:35:49.452Z,0.2
2019-02-16T15:36:58.961Z,0.3
2019-02-16T15:38:08.555Z,0.3
2019-02-16T15:39:18.176Z,0.3
2019-02-16T15:40:27.701Z,0.3
2019-02-16T15:41:37.213Z,0.4
2019-02-16T15:42:46.766Z,0.2
2019-02-16T15:43:56.315Z,0.3
2019-02-16T15:45:05.899Z,0.3
2019-02-16T15:46:15.457Z,0.2
2019-02-16T15:47:26.392Z,0.4
2019-02-16T15:48:35.925Z,0.5
2019-02-16T15:49:45.496Z,0.1
2019-02-16T15:50:54.997Z,0.3
2019-02-16T15:52:04.512Z,0.3
2019-02-16T15:53:14.075Z,0.3
2019-02-16T15:54:23.583Z,0.4
2019-02-16T15:55:33.172Z,0.3
2019-02-16T15:56:42.754Z,0.6
2019-02-16T15:57:52.287Z,0.3
2019-02-16T15:59:01.892Z,0.2
2019-02-16T16:00:11.443Z,0.4
2019-02-16T16:01:21.027Z,0.5
2019-02-16T16:02:30.694Z,0.5